Unbenanntes Dokument
Flugplatz Bielefeld Platzwetter

 

Aktuelles Platzwetter am Flugplatz Bielefeld EDLI

15.08.18 ,02:55 Uhr

METAR EDLI 150255Z 28001KT 9999 14/14 Q1018

 

Windwerte

 

Wolkenuntergrenzen

Wind aktuell:280 ° mit 2 kt
Wind 10 min Extrem:
240 ° bis 330 ° mit 1 kt bis 3 kt
Seitenwindkomponente: 0.2 kt
Wolkengrenze 1: 4500 ft
Wolkengrenze 2:
Wolkengrenze 3:

Webcam

Temperatur

       

Sichtweite:

20.000 Meter

14.7 °C
Taupunkt: 14.3 °C
Luftfeuchtigkeit: 97 %

Luftdruck:

QNH: 1018 hPa (30.06 in Hg)
QFE: 1002 hPa (29.59 in Hg)

Diese Daten werden automatisch ermittelt bzw. übertragen und sind nicht geprüft. Für die Richtigkeit wird daher keine Gewähr übernommen. Sie ersetzen im übrigen nicht die Flugwetterberatung. Alle Zeitangaben beziehen sich auf UTC. Die Seite wird einmal die Minute aktualisiert! Sollten Sie ein ältere Seite haben, so drücken Sie bitte auf den Reload Button Ihres Browsers!